createdAt,value
2023-01-29T00:01:44.422Z,101375.25
2023-01-29T00:04:10.977Z,101390.09
2023-01-29T00:06:37.856Z,101376.09
2023-01-29T00:09:04.462Z,101392.38
2023-01-29T00:11:31.957Z,101400.22
2023-01-29T00:13:58.597Z,101404.47
2023-01-29T00:16:25.143Z,101397.75
2023-01-29T00:18:51.736Z,101400.63
2023-01-29T00:21:20.198Z,101411.44
2023-01-29T00:23:47.164Z,101421.28
2023-01-29T00:26:14.447Z,101413.56
2023-01-29T00:28:41.022Z,101408.69
2023-01-29T00:31:08.729Z,101421.09
2023-01-29T00:33:35.418Z,101424.97
2023-01-29T00:36:03.937Z,101422.59
2023-01-29T00:38:30.686Z,101417.31
2023-01-29T00:41:15.736Z,101411.78
2023-01-29T00:44:00.836Z,101416.22
2023-01-29T00:46:27.427Z,101414.84
2023-01-29T00:48:53.940Z,101414.09
2023-01-29T00:51:20.480Z,101429.09
2023-01-29T00:53:46.966Z,101430.91
2023-01-29T00:56:13.490Z,101429.09
2023-01-29T00:58:40.046Z,101434.00
2023-01-29T01:01:06.671Z,101436.69
2023-01-29T01:03:35.414Z,101421.28
2023-01-29T01:06:07.097Z,101424.63
2023-01-29T01:08:52.304Z,101426.00
2023-01-29T01:11:18.969Z,101421.56
2023-01-29T01:13:46.036Z,101428.63
2023-01-29T01:16:14.348Z,101437.13
2023-01-29T01:18:42.700Z,101428.41
2023-01-29T01:21:09.216Z,101412.94
2023-01-29T01:23:35.897Z,101410.78
2023-01-29T01:26:02.680Z,101417.53
2023-01-29T01:28:29.332Z,101422.72
2023-01-29T01:30:56.013Z,101430.78
2023-01-29T01:33:22.623Z,101416.25
2023-01-29T01:35:49.142Z,101416.44
2023-01-29T01:38:15.659Z,101410.50
2023-01-29T01:40:45.546Z,101415.06
2023-01-29T01:43:12.207Z,101403.22
2023-01-29T01:45:38.859Z,101395.97
2023-01-29T01:48:25.822Z,101390.06
2023-01-29T01:50:52.307Z,101377.19
2023-01-29T01:53:29.508Z,101397.53
2023-01-29T01:56:04.021Z,101379.34
2023-01-29T01:58:35.901Z,101370.34
2023-01-29T02:01:04.864Z,101377.72
2023-01-29T02:03:54.554Z,101361.72
2023-01-29T02:06:39.634Z,101352.88
2023-01-29T02:09:34.411Z,101344.56
2023-01-29T02:12:12.174Z,101351.72
2023-01-29T02:14:40.757Z,101352.97
2023-01-29T02:17:18.984Z,101355.91
2023-01-29T02:20:01.345Z,101339.16
2023-01-29T02:22:29.199Z,101336.66
2023-01-29T02:25:17.487Z,101337.38
2023-01-29T02:28:21.694Z,101327.06
2023-01-29T02:31:35.263Z,101318.81
2023-01-29T02:34:12.093Z,101323.47
2023-01-29T02:36:45.864Z,101303.53
2023-01-29T02:39:23.533Z,101290.63
2023-01-29T02:42:11.816Z,101284.66
2023-01-29T02:44:42.592Z,101285.88
2023-01-29T02:47:22.787Z,101304.47
2023-01-29T02:49:54.215Z,101290.63
2023-01-29T02:52:28.071Z,101300.25
2023-01-29T02:54:56.687Z,101295.00
2023-01-29T02:57:29.847Z,101310.25
2023-01-29T03:00:02.850Z,101302.59
2023-01-29T03:02:33.744Z,101302.63
2023-01-29T03:05:03.346Z,101292.56
2023-01-29T03:07:42.516Z,101295.69
2023-01-29T03:10:18.492Z,101304.97
2023-01-29T03:12:50.141Z,101314.38
2023-01-29T03:15:25.046Z,101310.69
2023-01-29T03:18:08.517Z,101315.25
2023-01-29T03:20:38.703Z,101308.25
2023-01-29T03:23:10.537Z,101313.22
2023-01-29T03:25:57.479Z,101310.88
2023-01-29T03:28:42.896Z,101298.47
2023-01-29T03:31:31.044Z,101284.41
2023-01-29T03:34:07.391Z,101277.13
2023-01-29T03:36:45.246Z,101273.97
2023-01-29T03:39:12.853Z,101273.72
2023-01-29T03:42:08.864Z,101268.03
2023-01-29T03:44:41.218Z,101266.75
2023-01-29T03:47:29.423Z,101266.44
2023-01-29T03:50:10.821Z,101255.78
2023-01-29T03:52:43.405Z,101253.91
2023-01-29T03:55:25.354Z,101263.56
2023-01-29T03:58:01.231Z,101252.13
2023-01-29T04:00:36.032Z,101244.31
2023-01-29T04:03:18.124Z,101240.53
2023-01-29T04:06:10.535Z,101229.72
2023-01-29T04:08:44.714Z,101233.34
2023-01-29T04:11:14.611Z,101234.66
2023-01-29T04:13:41.176Z,101234.09
2023-01-29T04:16:12.529Z,101223.72
2023-01-29T04:18:39.105Z,101232.28
2023-01-29T04:21:07.391Z,101227.41
2023-01-29T04:23:34.130Z,101231.03
2023-01-29T04:26:21.676Z,101222.72
2023-01-29T04:29:10.323Z,101216.47
2023-01-29T04:31:49.076Z,101205.88
2023-01-29T04:34:27.969Z,101188.00
2023-01-29T04:37:13.395Z,101210.75
2023-01-29T04:39:45.834Z,101210.19
2023-01-29T04:42:21.523Z,101203.09
2023-01-29T04:45:08.511Z,101201.28
2023-01-29T04:47:40.040Z,101203.34
2023-01-29T04:50:34.656Z,101199.97
2023-01-29T04:53:15.751Z,101193.69
2023-01-29T04:55:49.667Z,101187.66
2023-01-29T04:58:35.698Z,101191.09
2023-01-29T05:01:05.293Z,101188.78
2023-01-29T05:03:33.125Z,101179.50
2023-01-29T05:06:00.792Z,101167.88
2023-01-29T05:08:29.235Z,101161.66
2023-01-29T05:10:57.671Z,101155.41
2023-01-29T05:13:25.918Z,101150.50
2023-01-29T05:15:55.485Z,101154.91
2023-01-29T05:18:22.181Z,101156.97
2023-01-29T05:20:49.386Z,101157.84
2023-01-29T05:23:17.763Z,101153.38
2023-01-29T05:25:45.516Z,101156.03
2023-01-29T05:28:16.470Z,101164.59
2023-01-29T05:30:45.749Z,101158.88
2023-01-29T05:33:17.923Z,101151.41
2023-01-29T05:35:44.452Z,101139.72
2023-01-29T05:38:11.080Z,101136.09
2023-01-29T05:40:38.419Z,101139.25
2023-01-29T05:43:05.791Z,101146.53
2023-01-29T05:45:33.000Z,101148.63
2023-01-29T05:48:00.365Z,101144.72
2023-01-29T05:50:27.766Z,101143.41
2023-01-29T05:53:01.328Z,101136.44
2023-01-29T05:55:31.626Z,101142.16
2023-01-29T05:57:58.197Z,101144.47
2023-01-29T06:00:24.912Z,101149.44
2023-01-29T06:02:51.581Z,101149.91
2023-01-29T06:05:18.140Z,101150.13
2023-01-29T06:07:45.480Z,101142.91
2023-01-29T06:10:14.837Z,101145.53
2023-01-29T06:12:42.931Z,101145.00
2023-01-29T06:15:10.271Z,101137.47
2023-01-29T06:17:37.024Z,101136.16
2023-01-29T06:20:05.227Z,101140.84
2023-01-29T06:22:32.999Z,101138.03
2023-01-29T06:24:59.517Z,101145.00
2023-01-29T06:27:26.071Z,101148.69
2023-01-29T06:29:52.569Z,101151.00
2023-01-29T06:32:19.147Z,101153.63
2023-01-29T06:34:47.899Z,101148.69
2023-01-29T06:37:15.184Z,101143.22
2023-01-29T06:39:41.794Z,101144.25
2023-01-29T06:42:08.577Z,101137.03
2023-01-29T06:44:35.078Z,101131.31
2023-01-29T06:47:01.612Z,101141.38
2023-01-29T06:49:28.110Z,101131.28
2023-01-29T06:51:54.708Z,101140.13
2023-01-29T06:54:21.225Z,101136.50
2023-01-29T06:56:47.761Z,101134.94
2023-01-29T06:59:14.415Z,101119.88
2023-01-29T07:01:42.278Z,101119.63
2023-01-29T07:04:08.883Z,101123.00
2023-01-29T07:06:35.472Z,101114.72
2023-01-29T07:09:03.113Z,101123.03
2023-01-29T07:11:29.668Z,101123.53
2023-01-29T07:13:56.308Z,101113.66
2023-01-29T07:16:23.446Z,101117.56
2023-01-29T07:18:50.048Z,101112.13
2023-01-29T07:21:16.616Z,101112.38
2023-01-29T07:23:43.168Z,101111.34
2023-01-29T07:26:10.554Z,101112.63
2023-01-29T07:28:38.137Z,101114.19
2023-01-29T07:31:05.345Z,101114.97
2023-01-29T07:33:32.089Z,101097.84
2023-01-29T07:35:58.763Z,101098.38
2023-01-29T07:38:25.285Z,101089.28
2023-01-29T07:40:52.613Z,101074.75
2023-01-29T07:43:19.199Z,101075.78
2023-01-29T07:45:45.785Z,101071.38
2023-01-29T07:48:13.213Z,101069.28
2023-01-29T07:50:40.246Z,101080.75
2023-01-29T07:53:06.875Z,101084.59
2023-01-29T07:55:33.668Z,101070.56
2023-01-29T07:58:02.450Z,101087.97
2023-01-29T08:00:31.011Z,101081.19
2023-01-29T08:03:05.413Z,101078.34
2023-01-29T08:05:33.656Z,101081.69
2023-01-29T08:08:07.002Z,101085.63
2023-01-29T08:10:38.874Z,101083.53
2023-01-29T08:13:06.469Z,101074.41
2023-01-29T08:15:33.382Z,101070.75
2023-01-29T08:18:01.874Z,101071.56
2023-01-29T08:20:28.571Z,101065.28
2023-01-29T08:23:05.973Z,101059.59
2023-01-29T08:25:33.013Z,101064.25
2023-01-29T08:28:00.464Z,101068.13
2023-01-29T08:30:29.969Z,101072.03
2023-01-29T08:32:56.538Z,101076.72
2023-01-29T08:35:23.354Z,101073.81
2023-01-29T08:37:59.365Z,101068.38
2023-01-29T08:40:26.999Z,101062.44
2023-01-29T08:43:13.630Z,101050.53
2023-01-29T08:45:42.337Z,101056.44
2023-01-29T08:48:09.107Z,101067.28
2023-01-29T08:50:36.063Z,101066.25
2023-01-29T08:53:05.355Z,101062.66
2023-01-29T08:55:31.862Z,101060.25
2023-01-29T08:57:58.491Z,101063.38
2023-01-29T09:00:25.222Z,101050.66
2023-01-29T09:02:51.851Z,101049.44
2023-01-29T09:05:18.874Z,101049.13
2023-01-29T09:07:45.659Z,101039.28
2023-01-29T09:10:12.431Z,101034.84
2023-01-29T09:12:39.124Z,101042.41
2023-01-29T09:15:06.201Z,101036.22
2023-01-29T09:17:32.708Z,101041.91
2023-01-29T09:19:59.276Z,101040.28
2023-01-29T09:22:25.815Z,101047.06
2023-01-29T09:24:52.362Z,101042.88
2023-01-29T09:27:18.911Z,101049.00
2023-01-29T09:29:45.431Z,101042.78
2023-01-29T09:32:11.971Z,101049.56
2023-01-29T09:34:46.054Z,101043.41
2023-01-29T09:37:12.564Z,101044.63
2023-01-29T09:39:39.184Z,101038.94
2023-01-29T09:42:13.908Z,101041.53
2023-01-29T09:45:01.197Z,101040.25
2023-01-29T09:47:28.179Z,101033.97
2023-01-29T09:50:05.741Z,101034.53
2023-01-29T09:53:04.331Z,101026.69
2023-01-29T09:55:44.039Z,101023.56
2023-01-29T09:58:28.776Z,101021.22
2023-01-29T10:01:25.990Z,101009.56
2023-01-29T10:04:27.616Z,101020.19
2023-01-29T10:07:06.022Z,101010.09
2023-01-29T10:09:51.196Z,101009.31
2023-01-29T10:12:36.051Z,101012.38
2023-01-29T10:15:20.892Z,101011.16
2023-01-29T10:17:56.732Z,101013.19
2023-01-29T10:20:47.584Z,101002.81
2023-01-29T10:23:22.556Z,101004.06
2023-01-29T10:25:49.824Z,100992.16
2023-01-29T10:28:31.958Z,100996.28
2023-01-29T10:31:02.806Z,100982.47
2023-01-29T10:34:02.501Z,100975.69
2023-01-29T10:36:36.400Z,100974.47
2023-01-29T10:39:03.131Z,100967.06
2023-01-29T10:41:32.722Z,100963.91
2023-01-29T10:44:12.525Z,100974.44
2023-01-29T10:46:57.543Z,100971.13
2023-01-29T10:50:09.196Z,100974.50
2023-01-29T10:53:02.970Z,100960.59
2023-01-29T10:56:23.009Z,100953.50
2023-01-29T10:59:05.471Z,100942.09
2023-01-29T11:01:32.200Z,100926.81
2023-01-29T11:04:04.662Z,100940.06
2023-01-29T11:06:34.760Z,100936.72
2023-01-29T11:09:11.617Z,100924.22
2023-01-29T11:11:45.220Z,100927.47
2023-01-29T11:14:27.463Z,100930.34
2023-01-29T11:16:54.278Z,100915.72
2023-01-29T11:19:40.241Z,100909.94
2023-01-29T11:22:13.631Z,100905.78
2023-01-29T11:24:40.124Z,100896.69
2023-01-29T11:27:16.268Z,100894.75
2023-01-29T11:29:48.147Z,100886.81
2023-01-29T11:32:23.923Z,100894.44
2023-01-29T11:35:20.687Z,100890.91
2023-01-29T11:37:47.595Z,100882.66
2023-01-29T11:40:20.009Z,100883.69
2023-01-29T11:42:47.128Z,100882.09
2023-01-29T11:45:32.173Z,100890.72
2023-01-29T11:47:59.503Z,100888.53
2023-01-29T11:50:28.371Z,100878.88
2023-01-29T11:52:55.132Z,100881.44
2023-01-29T11:55:40.999Z,100875.56
2023-01-29T11:58:27.561Z,100887.75
2023-01-29T12:00:55.536Z,100882.31
2023-01-29T12:03:35.705Z,100889.38
2023-01-29T12:06:18.568Z,100881.78
2023-01-29T12:08:45.300Z,100881.09
2023-01-29T12:11:25.035Z,100881.34
2023-01-29T12:13:56.335Z,100878.88
2023-01-29T12:16:27.983Z,100882.28
2023-01-29T12:18:58.451Z,100876.00
2023-01-29T12:21:51.571Z,100851.06
2023-01-29T12:24:39.160Z,100843.13
2023-01-29T12:27:59.885Z,100845.03
2023-01-29T12:30:30.590Z,100845.25
2023-01-29T12:33:27.099Z,100835.34
2023-01-29T12:35:59.836Z,100821.84
2023-01-29T12:38:26.751Z,100821.09
2023-01-29T12:40:57.136Z,100809.59
2023-01-29T12:43:41.430Z,100807.09
2023-01-29T12:46:14.921Z,100799.81
2023-01-29T12:48:43.027Z,100806.81
2023-01-29T12:51:14.702Z,100818.38
2023-01-29T12:53:50.498Z,100807.72
2023-01-29T12:56:22.775Z,100793.88
2023-01-29T12:58:52.034Z,100800.31
2023-01-29T13:01:38.608Z,100788.81
2023-01-29T13:04:09.748Z,100782.69
2023-01-29T13:07:00.380Z,100781.78
2023-01-29T13:09:29.002Z,100769.94
2023-01-29T13:12:12.453Z,100766.63
2023-01-29T13:15:01.584Z,100763.13
2023-01-29T13:17:36.964Z,100774.78
2023-01-29T13:20:19.184Z,100770.50
2023-01-29T13:22:46.618Z,100766.72
2023-01-29T13:25:17.875Z,100759.41
2023-01-29T13:27:47.755Z,100760.38
2023-01-29T13:30:29.471Z,100760.38
2023-01-29T13:33:09.119Z,100764.13
2023-01-29T13:35:42.280Z,100768.88
2023-01-29T13:38:27.535Z,100757.34
2023-01-29T13:40:58.166Z,100746.38
2023-01-29T13:43:24.691Z,100747.41
2023-01-29T13:45:53.129Z,100751.56
2023-01-29T13:48:32.382Z,100745.97
2023-01-29T13:51:03.498Z,100745.75
2023-01-29T13:53:36.710Z,100751.13
2023-01-29T13:56:28.182Z,100756.31
2023-01-29T13:58:55.878Z,100758.38
2023-01-29T14:01:48.407Z,100751.19
2023-01-29T14:04:28.180Z,100767.94
2023-01-29T14:07:33.195Z,100769.31
2023-01-29T14:10:10.477Z,100763.59
2023-01-29T14:12:39.899Z,100763.03
2023-01-29T14:15:22.022Z,100765.41
2023-01-29T14:18:22.371Z,100765.38
2023-01-29T14:20:48.897Z,100763.88
2023-01-29T14:23:44.636Z,100763.78
2023-01-29T14:26:32.671Z,100773.47
2023-01-29T14:29:29.094Z,100771.72
2023-01-29T14:32:06.217Z,100762.47
2023-01-29T14:34:43.053Z,100762.03
2023-01-29T14:37:15.514Z,100753.28
2023-01-29T14:39:47.882Z,100752.25
2023-01-29T14:42:24.271Z,100745.81
2023-01-29T14:44:53.757Z,100747.22
2023-01-29T14:47:38.345Z,100755.91
2023-01-29T14:50:32.738Z,100750.69
2023-01-29T14:53:03.290Z,100744.13
2023-01-29T14:55:35.725Z,100734.31
2023-01-29T14:58:03.605Z,100739.97
2023-01-29T15:00:35.179Z,100732.38
2023-01-29T15:03:04.387Z,100728.25
2023-01-29T15:05:32.996Z,100730.31
2023-01-29T15:08:18.482Z,100730.06
2023-01-29T15:11:12.417Z,100739.97
2023-01-29T15:13:55.798Z,100735.59
2023-01-29T15:16:38.372Z,100723.72
2023-01-29T15:19:21.456Z,100709.03
2023-01-29T15:22:06.864Z,100706.75
2023-01-29T15:24:33.728Z,100694.81
2023-01-29T15:27:01.189Z,100686.72
2023-01-29T15:29:28.449Z,100697.88
2023-01-29T15:31:56.303Z,100697.63
2023-01-29T15:34:23.092Z,100689.47
2023-01-29T15:36:50.604Z,100698.28
2023-01-29T15:39:24.642Z,100690.09
2023-01-29T15:42:05.403Z,100687.03
2023-01-29T15:44:32.069Z,100682.00
2023-01-29T15:47:00.400Z,100682.41
2023-01-29T15:49:31.871Z,100679.06
2023-01-29T15:52:00.050Z,100677.41
2023-01-29T15:54:30.711Z,100666.81
2023-01-29T15:56:57.832Z,100679.50
2023-01-29T15:59:31.565Z,100676.38
2023-01-29T16:01:58.135Z,100682.78
2023-01-29T16:04:30.994Z,100676.25
2023-01-29T16:06:58.288Z,100667.63
2023-01-29T16:09:26.336Z,100664.00
2023-01-29T16:11:54.423Z,100664.91
2023-01-29T16:14:23.259Z,100667.41
2023-01-29T16:16:49.849Z,100661.78
2023-01-29T16:19:25.719Z,100667.94
2023-01-29T16:22:03.648Z,100664.16
2023-01-29T16:24:31.495Z,100657.06
2023-01-29T16:27:01.018Z,100652.88
2023-01-29T16:29:32.335Z,100649.22
2023-01-29T16:32:03.444Z,100661.78
2023-01-29T16:34:39.011Z,100657.31
2023-01-29T16:37:08.204Z,100657.00
2023-01-29T16:39:38.674Z,100650.25
2023-01-29T16:42:17.522Z,100660.25
2023-01-29T16:44:52.256Z,100645.28
2023-01-29T16:47:41.120Z,100652.56
2023-01-29T16:50:54.026Z,100629.06
2023-01-29T16:53:23.324Z,100632.34
2023-01-29T16:55:51.228Z,100619.81
2023-01-29T16:58:22.863Z,100622.00
2023-01-29T17:01:05.309Z,100623.16
2023-01-29T17:03:33.378Z,100618.72
2023-01-29T17:06:24.457Z,100618.94
2023-01-29T17:08:51.559Z,100623.81
2023-01-29T17:11:34.401Z,100622.97
2023-01-29T17:14:01.053Z,100609.19
2023-01-29T17:16:31.762Z,100606.78
2023-01-29T17:18:59.101Z,100597.59
2023-01-29T17:21:26.049Z,100610.91
2023-01-29T17:23:52.905Z,100603.50
2023-01-29T17:26:19.867Z,100596.06
2023-01-29T17:28:49.469Z,100604.13
2023-01-29T17:31:16.078Z,100591.34
2023-01-29T17:33:43.741Z,100591.56
2023-01-29T17:36:16.227Z,100589.97
2023-01-29T17:38:42.763Z,100587.53
2023-01-29T17:41:17.134Z,100580.03
2023-01-29T17:43:44.182Z,100564.94
2023-01-29T17:46:15.375Z,100559.69
2023-01-29T17:48:42.567Z,100554.41
2023-01-29T17:51:11.955Z,100558.56
2023-01-29T17:53:46.915Z,100546.47
2023-01-29T17:56:16.870Z,100542.81
2023-01-29T17:58:43.434Z,100527.72
2023-01-29T18:01:10.022Z,100534.47
2023-01-29T18:03:36.715Z,100524.28
2023-01-29T18:06:03.357Z,100513.47
2023-01-29T18:08:35.332Z,100510.28
2023-01-29T18:11:01.907Z,100509.03
2023-01-29T18:13:28.488Z,100507.97
2023-01-29T18:15:55.126Z,100503.41
2023-01-29T18:18:23.796Z,100500.19
2023-01-29T18:20:50.848Z,100503.06
2023-01-29T18:23:17.404Z,100501.72
2023-01-29T18:25:44.806Z,100499.41
2023-01-29T18:28:19.377Z,100493.94
2023-01-29T18:30:47.407Z,100488.38
2023-01-29T18:33:14.967Z,100487.19
2023-01-29T18:35:41.517Z,100488.41
2023-01-29T18:38:08.070Z,100483.91
2023-01-29T18:40:34.576Z,100484.88
2023-01-29T18:43:01.251Z,100473.78
2023-01-29T18:45:28.644Z,100474.41
2023-01-29T18:47:55.908Z,100467.34
2023-01-29T18:50:26.303Z,100457.22
2023-01-29T18:52:53.509Z,100432.78
2023-01-29T18:55:20.276Z,100442.91
2023-01-29T18:58:26.502Z,100430.19
2023-01-29T19:00:33.503Z,100424.38
2023-01-29T19:03:00.703Z,100419.38
2023-01-29T19:05:27.225Z,100425.50
2023-01-29T19:07:53.842Z,100413.66
2023-01-29T19:10:20.410Z,100424.25
2023-01-29T19:12:46.940Z,100410.94
2023-01-29T19:15:13.545Z,100407.31
2023-01-29T19:17:40.029Z,100403.94
2023-01-29T19:20:07.081Z,100398.72
2023-01-29T19:22:33.924Z,100393.59
2023-01-29T19:25:00.517Z,100391.13
2023-01-29T19:27:30.336Z,100392.81
2023-01-29T19:30:00.098Z,100388.88
2023-01-29T19:32:28.880Z,100376.44
2023-01-29T19:34:55.412Z,100387.25
2023-01-29T19:37:22.006Z,100356.63
2023-01-29T19:39:48.513Z,100371.47
2023-01-29T19:42:15.113Z,100372.88
2023-01-29T19:44:41.765Z,100358.34
2023-01-29T19:47:08.340Z,100362.75
2023-01-29T19:49:34.821Z,100353.91
2023-01-29T19:52:01.924Z,100355.44
2023-01-29T19:54:29.529Z,100336.78
2023-01-29T19:56:56.272Z,100345.38
2023-01-29T19:59:22.855Z,100341.03
2023-01-29T20:01:49.416Z,100323.44
2023-01-29T20:04:15.997Z,100329.41
2023-01-29T20:06:42.553Z,100319.38
2023-01-29T20:09:09.072Z,100313.34
2023-01-29T20:11:35.626Z,100306.28
2023-01-29T20:14:02.453Z,100302.31
2023-01-29T20:16:29.208Z,100281.09
2023-01-29T20:18:55.802Z,100287.16
2023-01-29T20:21:41.805Z,100285.72
2023-01-29T20:24:12.319Z,100290.69
2023-01-29T20:26:39.080Z,100285.47
2023-01-29T20:29:06.522Z,100287.25
2023-01-29T20:31:33.693Z,100265.75
2023-01-29T20:34:00.442Z,100260.84
2023-01-29T20:36:27.116Z,100262.69
2023-01-29T20:38:53.760Z,100264.81
2023-01-29T20:41:21.169Z,100255.00
2023-01-29T20:43:50.132Z,100259.91
2023-01-29T20:46:17.650Z,100248.72
2023-01-29T20:48:44.187Z,100250.56
2023-01-29T20:51:15.215Z,100246.91
2023-01-29T20:53:46.030Z,100247.66
2023-01-29T20:56:14.344Z,100243.16
2023-01-29T20:58:41.504Z,100238.63
2023-01-29T21:01:13.327Z,100249.09
2023-01-29T21:03:40.169Z,100235.25
2023-01-29T21:06:08.818Z,100224.78
2023-01-29T21:08:36.525Z,100209.38
2023-01-29T21:11:04.241Z,100207.63
2023-01-29T21:13:30.901Z,100207.84
2023-01-29T21:15:57.550Z,100213.59
2023-01-29T21:18:26.310Z,100199.56
2023-01-29T21:20:53.827Z,100194.66
2023-01-29T21:23:20.510Z,100202.16
2023-01-29T21:25:48.039Z,100191.47
2023-01-29T21:28:15.138Z,100172.53
2023-01-29T21:30:41.796Z,100175.78
2023-01-29T21:33:08.370Z,100180.78
2023-01-29T21:35:37.782Z,100175.03
2023-01-29T21:38:04.737Z,100165.59
2023-01-29T21:40:31.254Z,100162.88
2023-01-29T21:43:12.909Z,100154.16
2023-01-29T21:45:40.190Z,100142.50
2023-01-29T21:48:06.911Z,100139.72
2023-01-29T21:50:33.443Z,100135.19
2023-01-29T21:53:00.040Z,100129.53
2023-01-29T21:55:26.612Z,100129.53
2023-01-29T21:57:53.222Z,100126.16
2023-01-29T22:00:19.945Z,100117.00
2023-01-29T22:02:46.764Z,100126.94
2023-01-29T22:05:19.440Z,100132.97
2023-01-29T22:07:47.215Z,100105.69
2023-01-29T22:10:14.571Z,100108.94
2023-01-29T22:12:41.353Z,100107.06
2023-01-29T22:15:09.228Z,100114.13
2023-01-29T22:17:35.889Z,100113.16
2023-01-29T22:20:02.760Z,100099.69
2023-01-29T22:22:29.274Z,100078.81
2023-01-29T22:24:58.264Z,100084.56
2023-01-29T22:27:25.108Z,100070.53
2023-01-29T22:29:51.693Z,100066.22
2023-01-29T22:32:18.312Z,100046.50
2023-01-29T22:34:44.840Z,100043.22
2023-01-29T22:37:11.445Z,100035.41
2023-01-29T22:39:37.986Z,100032.81
2023-01-29T22:42:04.697Z,100035.81
2023-01-29T22:44:31.384Z,100027.53
2023-01-29T22:46:57.927Z,100008.81
2023-01-29T22:49:25.743Z,100005.69
2023-01-29T22:52:10.089Z,100000.31
2023-01-29T22:54:41.932Z,99989.72
2023-01-29T22:57:12.835Z,99972.47
2023-01-29T22:59:39.466Z,99972.09
2023-01-29T23:02:06.946Z,99961.72
2023-01-29T23:04:33.738Z,99954.81
2023-01-29T23:07:00.285Z,99947.94
2023-01-29T23:09:26.840Z,99942.31
2023-01-29T23:11:53.410Z,99948.63
2023-01-29T23:14:20.019Z,99939.41
2023-01-29T23:16:46.574Z,99930.38
2023-01-29T23:19:13.161Z,99945.97
2023-01-29T23:21:39.928Z,99922.41
2023-01-29T23:24:07.967Z,99910.59
2023-01-29T23:26:53.367Z,99903.09
2023-01-29T23:29:20.113Z,99896.66
2023-01-29T23:31:46.797Z,99902.34
2023-01-29T23:34:14.026Z,99883.75
2023-01-29T23:36:41.268Z,99863.78
2023-01-29T23:39:07.996Z,99872.31
2023-01-29T23:41:34.564Z,99857.44
2023-01-29T23:44:01.107Z,99859.25
2023-01-29T23:46:27.669Z,99869.06
2023-01-29T23:48:54.187Z,99845.44
2023-01-29T23:51:20.827Z,99846.88
2023-01-29T23:53:47.363Z,99838.84
2023-01-29T23:56:13.906Z,99837.41
2023-01-29T23:58:40.476Z,99837.69
